Time;durP1;ratioP1;P1;durP2;ratioP2;P2;SDS_P1;SDS_P2;PMS_P1;PMS_P2;Temp;Humidity;BMP_temperature;BMP_pressure;BME280_temperature;BME280_humidity;BME280_pressure;Samples;Min_cycle;Max_cycle;Signal;HPM_P1;HPM_P2
2019/12/21 00:00:39;;;;;;;1.7;1;;;;;;;;;;;;;
2019/12/21 00:03:04;;;;;;;1.6;1;;;;;;;;;;;;;
2019/12/21 00:05:29;;;;;;;1.9;0.9;;;;;;;;;;;;;
2019/12/21 00:07:54;;;;;;;1.4;0.9;;;;;;;;;;;;;
2019/12/21 00:10:19;;;;;;;1.3;0.8;;;;;;;;;;;;;
2019/12/21 00:12:44;;;;;;;0.9;0.8;;;;;;;;;;;;;
2019/12/21 00:15:10;;;;;;;1.5;0.7;;;;;;;;;;;;;
2019/12/21 00:17:35;;;;;;;1.9;1.1;;;;;;;;;;;;;
2019/12/21 00:20:00;;;;;;;1;0.7;;;;;;;;;;;;;
2019/12/21 00:22:25;;;;;;;1.4;0.8;;;;;;;;;;;;;
2019/12/21 00:24:50;;;;;;;1.7;0.8;;;;;;;;;;;;;
2019/12/21 00:27:15;;;;;;;1.2;0.7;;;;;;;;;;;;;
2019/12/21 00:29:40;;;;;;;0.9;0.7;;;;;;;;;;;;;
2019/12/21 00:32:05;;;;;;;1.6;1.2;;;;;;;;;;;;;
2019/12/21 00:34:30;;;;;;;4.2;1.9;;;;;;;;;;;;;
2019/12/21 00:36:55;;;;;;;2.5;1.3;;;;;;;;;;;;;
2019/12/21 00:39:21;;;;;;;3.1;1.3;;;;;;;;;;;;;
2019/12/21 00:41:46;;;;;;;1.8;1.1;;;;;;;;;;;;;
2019/12/21 00:44:11;;;;;;;1.1;0.6;;;;;;;;;;;;;
2019/12/21 00:46:36;;;;;;;1;0.8;;;;;;;;;;;;;
2019/12/21 00:49:01;;;;;;;1.1;0.8;;;;;;;;;;;;;
2019/12/21 00:51:26;;;;;;;1;0.7;;;;;;;;;;;;;
2019/12/21 00:53:51;;;;;;;2;0.8;;;;;;;;;;;;;
2019/12/21 00:56:16;;;;;;;1.3;0.8;;;;;;;;;;;;;
2019/12/21 00:58:41;;;;;;;1.5;0.8;;;;;;;;;;;;;
2019/12/21 01:01:06;;;;;;;1.1;0.6;;;;;;;;;;;;;
2019/12/21 01:03:32;;;;;;;1;0.7;;;;;;;;;;;;;
2019/12/21 01:05:57;;;;;;;0.8;0.5;;;;;;;;;;;;;
2019/12/21 01:08:22;;;;;;;0.7;0.5;;;;;;;;;;;;;
2019/12/21 01:10:47;;;;;;;1;0.5;;;;;;;;;;;;;
2019/12/21 01:13:12;;;;;;;0.7;0.5;;;;;;;;;;;;;
2019/12/21 01:15:37;;;;;;;1.3;0.6;;;;;;;;;;;;;
2019/12/21 01:18:03;;;;;;;2;0.7;;;;;;;;;;;;;
2019/12/21 01:20:28;;;;;;;1.3;0.7;;;;;;;;;;;;;
2019/12/21 01:22:53;;;;;;;0.9;0.6;;;;;;;;;;;;;
2019/12/21 01:25:18;;;;;;;0.7;0.4;;;;;;;;;;;;;
2019/12/21 01:27:43;;;;;;;1;0.5;;;;;;;;;;;;;
2019/12/21 01:30:08;;;;;;;0.5;0.5;;;;;;;;;;;;;
2019/12/21 01:32:33;;;;;;;1;0.5;;;;;;;;;;;;;
2019/12/21 01:34:58;;;;;;;0.9;0.5;;;;;;;;;;;;;
2019/12/21 01:37:23;;;;;;;0.6;0.5;;;;;;;;;;;;;
2019/12/21 01:39:48;;;;;;;0.8;0.5;;;;;;;;;;;;;
2019/12/21 01:42:14;;;;;;;1.2;0.6;;;;;;;;;;;;;
2019/12/21 01:44:39;;;;;;;0.6;0.6;;;;;;;;;;;;;
2019/12/21 01:47:04;;;;;;;1.2;0.6;;;;;;;;;;;;;
2019/12/21 01:49:29;;;;;;;0.7;0.5;;;;;;;;;;;;;
2019/12/21 01:51:54;;;;;;;0.9;0.5;;;;;;;;;;;;;
2019/12/21 01:54:19;;;;;;;0.8;0.5;;;;;;;;;;;;;
2019/12/21 01:56:44;;;;;;;0.8;0.5;;;;;;;;;;;;;
2019/12/21 01:59:10;;;;;;;1.4;0.6;;;;;;;;;;;;;
2019/12/21 02:01:35;;;;;;;1;0.5;;;;;;;;;;;;;
2019/12/21 02:04:00;;;;;;;2.2;0.5;;;;;;;;;;;;;
2019/12/21 02:06:25;;;;;;;1.4;0.7;;;;;;;;;;;;;
2019/12/21 02:08:50;;;;;;;1.6;1;;;;;;;;;;;;;
2019/12/21 02:11:15;;;;;;;1.7;0.9;;;;;;;;;;;;;
2019/12/21 02:13:40;;;;;;;1.6;0.7;;;;;;;;;;;;;
2019/12/21 02:16:05;;;;;;;1.3;0.6;;;;;;;;;;;;;
2019/12/21 02:18:30;;;;;;;1.3;0.6;;;;;;;;;;;;;
2019/12/21 02:20:55;;;;;;;0.9;0.5;;;;;;;;;;;;;
2019/12/21 02:23:20;;;;;;;1.2;0.6;;;;;;;;;;;;;
2019/12/21 02:25:46;;;;;;;1.2;0.7;;;;;;;;;;;;;
2019/12/21 02:28:11;;;;;;;1.8;0.8;;;;;;;;;;;;;
2019/12/21 02:30:36;;;;;;;1;0.6;;;;;;;;;;;;;
2019/12/21 02:33:01;;;;;;;0.7;0.6;;;;;;;;;;;;;
2019/12/21 02:35:26;;;;;;;0.9;0.6;;;;;;;;;;;;;
2019/12/21 02:37:51;;;;;;;1.6;0.6;;;;;;;;;;;;;
2019/12/21 02:40:16;;;;;;;0.9;0.7;;;;;;;;;;;;;
2019/12/21 02:42:41;;;;;;;0.9;0.7;;;;;;;;;;;;;
2019/12/21 02:45:06;;;;;;;0.7;0.6;;;;;;;;;;;;;
2019/12/21 02:47:31;;;;;;;1.2;0.7;;;;;;;;;;;;;
2019/12/21 02:49:56;;;;;;;0.9;0.6;;;;;;;;;;;;;
2019/12/21 02:52:21;;;;;;;0.9;0.7;;;;;;;;;;;;;
2019/12/21 02:54:46;;;;;;;1.3;0.9;;;;;;;;;;;;;
2019/12/21 02:57:12;;;;;;;0.7;0.6;;;;;;;;;;;;;
2019/12/21 02:59:37;;;;;;;1.6;0.8;;;;;;;;;;;;;
2019/12/21 03:02:02;;;;;;;1.7;1;;;;;;;;;;;;;
2019/12/21 03:04:27;;;;;;;1.1;0.8;;;;;;;;;;;;;
2019/12/21 03:06:52;;;;;;;2.1;1;;;;;;;;;;;;;
2019/12/21 03:09:17;;;;;;;2.1;1.1;;;;;;;;;;;;;
2019/12/21 03:11:42;;;;;;;3;1;;;;;;;;;;;;;
2019/12/21 03:14:07;;;;;;;1.2;0.9;;;;;;;;;;;;;
2019/12/21 03:16:32;;;;;;;1.6;0.9;;;;;;;;;;;;;
2019/12/21 03:18:57;;;;;;;1.7;0.9;;;;;;;;;;;;;
2019/12/21 03:21:22;;;;;;;2.4;1.2;;;;;;;;;;;;;
2019/12/21 03:23:47;;;;;;;2.7;1.3;;;;;;;;;;;;;
2019/12/21 03:26:12;;;;;;;1.3;1;;;;;;;;;;;;;
2019/12/21 03:28:38;;;;;;;1.8;0.9;;;;;;;;;;;;;
2019/12/21 03:31:03;;;;;;;1.9;0.9;;;;;;;;;;;;;
2019/12/21 03:33:28;;;;;;;1.1;0.8;;;;;;;;;;;;;
2019/12/21 03:35:53;;;;;;;1;0.7;;;;;;;;;;;;;
2019/12/21 03:38:18;;;;;;;1;0.7;;;;;;;;;;;;;
2019/12/21 03:40:43;;;;;;;1;0.7;;;;;;;;;;;;;
2019/12/21 03:43:08;;;;;;;1.2;0.7;;;;;;;;;;;;;
2019/12/21 03:45:33;;;;;;;1;0.8;;;;;;;;;;;;;
2019/12/21 03:47:58;;;;;;;1;0.8;;;;;;;;;;;;;
2019/12/21 03:50:24;;;;;;;1.6;1.1;;;;;;;;;;;;;
2019/12/21 03:52:49;;;;;;;2.1;1.2;;;;;;;;;;;;;
2019/12/21 03:55:14;;;;;;;2;1.1;;;;;;;;;;;;;
2019/12/21 03:57:39;;;;;;;1.8;0.9;;;;;;;;;;;;;
2019/12/21 04:02:28;;;;;;;1.7;0.8;;;;;;;4.69;100;941.3889;;;;
2019/12/21 04:04:53;;;;;;;1;0.8;;;;;;;4.69;100;941.3694;;;;
2019/12/21 04:07:18;;;;;;;3.1;1.1;;;;;;;4.75;100;941.3016;;;;
2019/12/21 04:09:43;;;;;;;2.4;1.1;;;;;;;4.63;100;941.168;;;;
2019/12/21 04:12:09;;;;;;;1.8;1.1;;;;;;;4.46;100;941.25;;;;
2019/12/21 04:14:34;;;;;;;2.2;1.1;;;;;;;4.48;100;941.2911;;;;
2019/12/21 04:17:10;;;;;;;1.8;1.2;;;;;;;4.6;100;941.1434;;;;
2019/12/21 04:19:24;;;;;;;1.3;1.2;;;;;;;4.61;100;940.9985;;;;
2019/12/21 04:21:49;;;;;;;1.5;1.4;;;;;;;4.6;100;941.0126;;;;
2019/12/21 04:24:15;;;;;;;1.1;1;;;;;;;4.65;100;940.9432;;;;
2019/12/21 04:26:40;;;;;;;2.1;1;;;;;;;4.63;100;941.0139;;;;
2019/12/21 04:29:05;;;;;;;2.2;1;;;;;;;4.42;100;941.0332;;;;
2019/12/21 04:31:30;;;;;;;1.6;1;;;;;;;4.32;100;941.0506;;;;
2019/12/21 04:33:55;;;;;;;1.8;1.1;;;;;;;4.24;100;940.9592;;;;
2019/12/21 04:36:20;;;;;;;1.7;1.1;;;;;;;4.33;100;940.941;;;;
2019/12/21 04:38:45;;;;;;;2.1;1;;;;;;;4.41;100;940.8824;;;;
2019/12/21 04:41:10;;;;;;;1.2;0.9;;;;;;;4.34;100;940.8293;;;;
2019/12/21 04:43:35;;;;;;;1;0.9;;;;;;;4.4;100;940.8195;;;;
2019/12/21 04:46:00;;;;;;;1.4;1;;;;;;;4.26;100;940.8564;;;;
2019/12/21 04:48:26;;;;;;;2.1;1;;;;;;;4.14;100;940.8743;;;;
2019/12/21 04:50:55;;;;;;;0.8;0.8;;;;;;;4.2;100;940.9057;;;;
2019/12/21 04:53:28;;;;;;;1;0.8;;;;;;;4.36;100;940.8326;;;;
2019/12/21 04:56:15;;;;;;;1.2;0.8;;;;;;;4.43;100;940.7522;;;;
2019/12/21 04:58:24;;;;;;;1.4;0.9;;;;;;;4.42;100;940.7308;;;;
2019/12/21 05:00:49;;;;;;;1;0.9;;;;;;;4.45;100;940.6514;;;;
2019/12/21 05:03:39;;;;;;;0.9;0.8;;;;;;;4.44;100;940.5659;;;;
2019/12/21 05:05:58;;;;;;;1;0.8;;;;;;;4.53;100;940.4886;;;;
2019/12/21 05:08:24;;;;;;;1.1;1;;;;;;;4.51;100;940.4681;;;;
2019/12/21 05:10:50;;;;;;;1.1;0.9;;;;;;;4.53;100;940.4355;;;;
2019/12/21 05:13:15;;;;;;;2;1;;;;;;;4.57;100;940.3494;;;;
2019/12/21 05:15:41;;;;;;;1.1;1;;;;;;;4.62;100;940.4211;;;;
2019/12/21 05:18:21;;;;;;;1;0.9;;;;;;;4.48;100;940.4598;;;;
2019/12/21 05:20:47;;;;;;;1.6;0.9;;;;;;;4.5;100;940.544;;;;
2019/12/21 05:23:36;;;;;;;0.9;0.8;;;;;;;4.53;100;940.4967;;;;
2019/12/21 05:38:32;;;;;;;1.5;1.2;;;;;;;4.27;100;940.5333;;;;
2019/12/21 05:41:04;;;;;;;2.2;1.4;;;;;;;4.4;100;940.3911;;;;
2019/12/21 05:43:25;;;;;;;1.7;1.5;;;;;;;4.44;100;940.4135;;;;
2019/12/21 05:45:59;;;;;;;2.2;1.4;;;;;;;4.45;100;940.5046;;;;
2019/12/21 05:48:24;;;;;;;1.6;1.2;;;;;;;4.39;100;940.537;;;;
2019/12/21 05:50:53;;;;;;;1.5;1.3;;;;;;;4.49;100;940.5956;;;;
2019/12/21 05:53:18;;;;;;;1.7;1.3;;;;;;;4.54;100;940.5927;;;;
2019/12/21 05:55:43;;;;;;;2.6;1.3;;;;;;;4.54;100;940.4983;;;;
2019/12/21 05:58:08;;;;;;;1.5;1.4;;;;;;;4.5;100;940.4867;;;;
2019/12/21 06:00:33;;;;;;;1.7;1.4;;;;;;;4.56;100;940.4963;;;;
2019/12/21 06:02:59;;;;;;;1.7;1.3;;;;;;;4.6;100;940.553;;;;
2019/12/21 06:05:24;;;;;;;2.4;1.2;;;;;;;4.57;100;940.5317;;;;
2019/12/21 06:07:49;;;;;;;1.8;1.4;;;;;;;4.64;100;940.5641;;;;
2019/12/21 06:10:14;;;;;;;1.9;1.2;;;;;;;4.48;100;940.6194;;;;
2019/12/21 06:12:39;;;;;;;1.6;1.3;;;;;;;4.56;100;940.6213;;;;
2019/12/21 06:15:04;;;;;;;1.7;1.3;;;;;;;4.55;100;940.6172;;;;
2019/12/21 06:17:29;;;;;;;2.1;1.1;;;;;;;4.52;100;940.6225;;;;
2019/12/21 06:19:55;;;;;;;1.4;1.2;;;;;;;4.41;100;940.6744;;;;
2019/12/21 06:22:20;;;;;;;1.8;1.3;;;;;;;4.47;100;940.6412;;;;
2019/12/21 06:24:45;;;;;;;1.6;1.4;;;;;;;4.34;100;940.5971;;;;
2019/12/21 06:27:10;;;;;;;2.2;1.6;;;;;;;4.47;100;940.5872;;;;
2019/12/21 06:29:36;;;;;;;1.6;1.4;;;;;;;4.68;100;940.5539;;;;
2019/12/21 06:32:01;;;;;;;1.2;1.1;;;;;;;4.55;100;940.5011;;;;
2019/12/21 06:34:26;;;;;;;2.2;1.4;;;;;;;4.61;100;940.3869;;;;
2019/12/21 06:36:51;;;;;;;2.1;1.5;;;;;;;4.7;100;940.2703;;;;
2019/12/21 06:39:16;;;;;;;1.9;1.4;;;;;;;4.66;100;940.2238;;;;
2019/12/21 06:41:41;;;;;;;1.6;1.4;;;;;;;4.77;100;940.1975;;;;
2019/12/21 06:44:06;;;;;;;1.6;1.2;;;;;;;4.66;100;940.2151;;;;
2019/12/21 06:46:31;;;;;;;2.2;1.5;;;;;;;4.65;100;940.2253;;;;
2019/12/21 06:48:56;;;;;;;1.7;1.3;;;;;;;4.67;100;940.2369;;;;
2019/12/21 06:51:21;;;;;;;1.8;1.4;;;;;;;4.73;100;940.1302;;;;
2019/12/21 06:53:47;;;;;;;1.6;1.4;;;;;;;4.77;100;940.1418;;;;
2019/12/21 06:56:12;;;;;;;1.7;1.4;;;;;;;4.66;100;940.1827;;;;
2019/12/21 06:58:37;;;;;;;1.6;1.2;;;;;;;4.71;100;940.1573;;;;
2019/12/21 07:01:02;;;;;;;2.3;1.5;;;;;;;4.53;100;940.1838;;;;
2019/12/21 07:03:27;;;;;;;1.5;1.3;;;;;;;4.56;100;940.2495;;;;
2019/12/21 07:05:52;;;;;;;1.3;1.2;;;;;;;4.57;100;940.2487;;;;
2019/12/21 07:08:17;;;;;;;1.7;1.1;;;;;;;4.62;100;940.2622;;;;
2019/12/21 07:10:42;;;;;;;1.5;1.2;;;;;;;4.64;100;940.3286;;;;
2019/12/21 07:13:08;;;;;;;1.9;1.3;;;;;;;4.69;100;940.3563;;;;
2019/12/21 07:15:33;;;;;;;1.2;1.1;;;;;;;4.68;100;940.399;;;;
2019/12/21 07:17:59;;;;;;;1.3;1;;;;;;;4.7;100;940.4365;;;;
2019/12/21 07:20:24;;;;;;;1.6;1.1;;;;;;;4.74;100;940.3682;;;;
2019/12/21 07:22:49;;;;;;;1.3;1;;;;;;;4.83;100;940.3594;;;;
2019/12/21 07:25:14;;;;;;;1.3;1.2;;;;;;;4.67;100;940.3192;;;;
2019/12/21 07:27:40;;;;;;;1.3;1;;;;;;;4.74;100;940.3166;;;;
2019/12/21 07:30:05;;;;;;;1.2;1.1;;;;;;;4.81;100;940.3631;;;;
2019/12/21 07:32:31;;;;;;;1.3;1.2;;;;;;;4.69;100;940.4475;;;;
2019/12/21 07:34:56;;;;;;;1.6;1.2;;;;;;;4.84;100;940.4409;;;;
2019/12/21 07:37:21;;;;;;;1.4;1.3;;;;;;;4.95;100;940.471;;;;
2019/12/21 07:39:47;;;;;;;1.3;1.2;;;;;;;5.07;100;940.4559;;;;
2019/12/21 07:42:12;;;;;;;1.3;1.2;;;;;;;5.11;100;940.4392;;;;
2019/12/21 07:44:37;;;;;;;1.4;1.3;;;;;;;5.03;100;940.5049;;;;
2019/12/21 07:47:02;;;;;;;2;1.3;;;;;;;5.03;100;940.517;;;;
2019/12/21 07:49:27;;;;;;;1.8;1.4;;;;;;;5.07;100;940.5229;;;;
2019/12/21 07:51:53;;;;;;;2.1;1.3;;;;;;;5.08;100;940.4592;;;;
2019/12/21 07:54:18;;;;;;;2;1.7;;;;;;;5.1;100;940.4504;;;;
2019/12/21 07:56:43;;;;;;;3.3;1.8;;;;;;;5.21;100;940.4604;;;;
2019/12/21 07:59:08;;;;;;;2.5;1.8;;;;;;;5.18;100;940.5159;;;;
2019/12/21 08:01:33;;;;;;;2.9;2;;;;;;;5.12;100;940.4919;;;;
2019/12/21 08:03:58;;;;;;;3.1;2.5;;;;;;;5.04;100;940.4702;;;;
2019/12/21 08:06:23;;;;;;;3.2;2.6;;;;;;;5.02;100;940.4514;;;;
2019/12/21 08:08:48;;;;;;;3.5;2.6;;;;;;;5.12;100;940.4104;;;;
2019/12/21 08:11:13;;;;;;;4.6;2.6;;;;;;;5.09;100;940.3093;;;;
2019/12/21 08:13:38;;;;;;;3.7;2.5;;;;;;;5.18;100;940.1744;;;;
2019/12/21 08:16:04;;;;;;;3.8;2.5;;;;;;;5.19;100;940.0298;;;;
2019/12/21 08:18:29;;;;;;;3.2;2.4;;;;;;;5.26;100;939.9269;;;;
2019/12/21 08:20:54;;;;;;;3.2;2.1;;;;;;;5.32;100;939.8652;;;;
2019/12/21 08:23:19;;;;;;;4;2.2;;;;;;;5.37;100;939.9124;;;;
2019/12/21 08:25:44;;;;;;;2.4;2.1;;;;;;;5.3;100;939.9637;;;;
2019/12/21 08:28:09;;;;;;;2.4;2.2;;;;;;;5.18;100;940.1155;;;;
2019/12/21 08:30:34;;;;;;;2.3;2.1;;;;;;;5.21;100;940.1085;;;;
2019/12/21 08:32:59;;;;;;;2.2;1.9;;;;;;;5.21;100;940.1617;;;;
2019/12/21 08:35:24;;;;;;;2.8;2.3;;;;;;;5.24;100;940.2289;;;;
2019/12/21 08:37:49;;;;;;;2.4;2.1;;;;;;;5.24;100;940.2475;;;;
2019/12/21 08:40:14;;;;;;;2.9;2.3;;;;;;;5.29;100;940.259;;;;
2019/12/21 08:42:39;;;;;;;4.9;3.3;;;;;;;5.26;100;940.2427;;;;
2019/12/21 08:45:04;;;;;;;3.1;2.8;;;;;;;5.2;100;940.251;;;;
2019/12/21 08:47:30;;;;;;;4.4;2.7;;;;;;;5.25;100;940.2636;;;;
2019/12/21 08:49:55;;;;;;;2.9;2.6;;;;;;;5.37;100;940.2095;;;;
2019/12/21 08:52:20;;;;;;;3.6;3;;;;;;;5.3;100;940.1802;;;;
2019/12/21 08:54:45;;;;;;;4.7;2.6;;;;;;;5.28;100;940.1872;;;;
2019/12/21 08:57:11;;;;;;;5.2;2.9;;;;;;;5.35;100;940.141;;;;
2019/12/21 08:59:36;;;;;;;3;2.7;;;;;;;5.3;100;940.0881;;;;
2019/12/21 09:02:01;;;;;;;3.3;2.4;;;;;;;5.45;100;940.0156;;;;
2019/12/21 09:04:26;;;;;;;4;2.6;;;;;;;5.55;100;940.0331;;;;
2019/12/21 09:06:52;;;;;;;7;2.9;;;;;;;5.57;100;940.0858;;;;
2019/12/21 09:09:33;;;;;;;4.6;2.8;;;;;;;5.59;100;940.0211;;;;
2019/12/21 09:11:42;;;;;;;5.5;2.7;;;;;;;5.65;100;940.0129;;;;
2019/12/21 09:14:08;;;;;;;4.1;3.4;;;;;;;5.59;100;939.9525;;;;
2019/12/21 09:16:33;;;;;;;4.9;3.7;;;;;;;5.52;100;939.8698;;;;
2019/12/21 09:18:58;;;;;;;4.6;3.4;;;;;;;5.71;100;939.9033;;;;
2019/12/21 09:21:23;;;;;;;4.5;3.3;;;;;;;5.78;100;939.8761;;;;
2019/12/21 09:23:48;;;;;;;3.8;3.3;;;;;;;5.84;100;939.8845;;;;
2019/12/21 09:26:13;;;;;;;5.3;3.5;;;;;;;5.85;100;939.9579;;;;
2019/12/21 09:28:38;;;;;;;4.4;3.5;;;;;;;5.75;100;940.065;;;;
2019/12/21 09:31:04;;;;;;;4;3.3;;;;;;;5.74;100;940.1722;;;;
2019/12/21 09:33:29;;;;;;;3.7;3.2;;;;;;;5.79;100;940.1677;;;;
2019/12/21 09:35:54;;;;;;;4.8;3.6;;;;;;;5.85;100;940.2206;;;;
2019/12/21 09:38:19;;;;;;;4.7;4.1;;;;;;;5.92;100;940.3106;;;;
2019/12/21 09:40:44;;;;;;;6.8;5.9;;;;;;;5.99;99.8877;940.2622;;;;
2019/12/21 09:43:09;;;;;;;7.6;6.2;;;;;;;5.88;100;940.2863;;;;
2019/12/21 09:45:35;;;;;;;5.9;4.3;;;;;;;5.89;100;940.3315;;;;
2019/12/21 09:48:00;;;;;;;6.1;4.9;;;;;;;5.86;100;940.2581;;;;
2019/12/21 09:50:25;;;;;;;4.6;4.1;;;;;;;5.7;100;940.2618;;;;
2019/12/21 09:52:51;;;;;;;4.5;3.5;;;;;;;5.75;100;940.2209;;;;
2019/12/21 09:55:16;;;;;;;4.1;3.2;;;;;;;5.79;100;940.1403;;;;
2019/12/21 09:57:41;;;;;;;4.6;3.4;;;;;;;5.85;100;940.1907;;;;
2019/12/21 10:00:07;;;;;;;3.6;3;;;;;;;5.92;100;940.1199;;;;
2019/12/21 10:02:32;;;;;;;4;3.1;;;;;;;5.92;100;940.0708;;;;
2019/12/21 10:04:58;;;;;;;4.2;3.1;;;;;;;6.03;100;940.0779;;;;
2019/12/21 10:07:23;;;;;;;4.8;3.4;;;;;;;6.07;98.83789;940.0675;;;;
2019/12/21 10:09:49;;;;;;;4.5;3.4;;;;;;;6.05;100;940.1144;;;;
2019/12/21 10:12:14;;;;;;;4.1;3.1;;;;;;;6.09;100;940.1727;;;;
2019/12/21 10:14:40;;;;;;;4.7;3.3;;;;;;;6.13;100;940.223;;;;
2019/12/21 10:17:05;;;;;;;4.9;3.1;;;;;;;6.16;99.30273;940.2816;;;;
2019/12/21 10:19:30;;;;;;;3.1;2.4;;;;;;;6.28;97.73438;940.3416;;;;
2019/12/21 10:21:55;;;;;;;3.4;2.4;;;;;;;6.05;98.34375;940.408;;;;
2019/12/21 10:24:20;;;;;;;3.5;2.5;;;;;;;6.21;98.64063;940.3923;;;;
2019/12/21 10:26:46;;;;;;;5.4;3.7;;;;;;;6.33;97.72363;940.4139;;;;
2019/12/21 10:29:11;;;;;;;5.3;3.7;;;;;;;6.05;99.7334;940.4289;;;;
2019/12/21 10:31:36;;;;;;;5;3.8;;;;;;;5.92;100;940.4036;;;;
2019/12/21 10:34:01;;;;;;;4.8;3.9;;;;;;;5.93;100;940.2756;;;;
2019/12/21 10:36:27;;;;;;;5.2;4.1;;;;;;;5.87;100;940.275;;;;
2019/12/21 10:38:52;;;;;;;5.3;3.8;;;;;;;6.01;100;940.2516;;;;
2019/12/21 10:41:17;;;;;;;4.6;3.3;;;;;;;6.13;100;940.2043;;;;
2019/12/21 10:43:42;;;;;;;5.7;3.7;;;;;;;6.11;100;940.2045;;;;
2019/12/21 10:46:08;;;;;;;4.4;3.3;;;;;;;6.27;99.25879;940.2252;;;;
2019/12/21 10:48:33;;;;;;;4.2;3.3;;;;;;;6.28;98.76172;940.2028;;;;
2019/12/21 10:50:58;;;;;;;4.3;3.3;;;;;;;6.24;99.42188;940.1936;;;;
2019/12/21 10:53:24;;;;;;;4.1;2.9;;;;;;;6.19;99.58203;940.1814;;;;
2019/12/21 10:55:49;;;;;;;4.4;3;;;;;;;6.33;98.55566;940.1267;;;;
2019/12/21 10:58:14;;;;;;;3.9;2.8;;;;;;;6.36;97.66113;940.1657;;;;
2019/12/21 11:00:39;;;;;;;4.2;2.8;;;;;;;6.45;98.63965;940.1207;;;;
2019/12/21 11:03:04;;;;;;;3.4;2.9;;;;;;;6.44;98.23828;940.0851;;;;
2019/12/21 11:05:30;;;;;;;3.1;2.7;;;;;;;6.7;97.71582;940.0994;;;;
2019/12/21 11:07:55;;;;;;;3.8;2.6;;;;;;;6.71;99.49805;940.072;;;;
2019/12/21 11:10:21;;;;;;;3.6;3.2;;;;;;;6.71;98.9502;940.123;;;;
2019/12/21 11:12:46;;;;;;;3;2.4;;;;;;;6.58;99.06934;940.1422;;;;
2019/12/21 11:15:11;;;;;;;3.8;2.9;;;;;;;6.42;98.98633;940.1635;;;;
2019/12/21 11:17:36;;;;;;;3.5;2.7;;;;;;;6.6;99.49512;940.1793;;;;
2019/12/21 11:20:01;;;;;;;4.2;2.9;;;;;;;6.77;98.30273;940.1255;;;;
2019/12/21 11:22:26;;;;;;;4.1;3;;;;;;;7.02;96.79688;940.1451;;;;
2019/12/21 11:24:51;;;;;;;6.7;4.5;;;;;;;6.83;96.69531;940.0698;;;;
2019/12/21 11:27:16;;;;;;;5.7;4.9;;;;;;;6.84;96.31152;940.0551;;;;
2019/12/21 11:29:41;;;;;;;6.7;5.8;;;;;;;6.92;96.08984;940.1014;;;;
2019/12/21 11:32:06;;;;;;;6.7;5.5;;;;;;;6.73;96.68652;940.0494;;;;
2019/12/21 11:34:31;;;;;;;6.4;5.2;;;;;;;6.77;97.57129;940.1102;;;;
2019/12/21 11:36:56;;;;;;;6.9;5.3;;;;;;;6.9;97.34082;940.0811;;;;
2019/12/21 11:39:22;;;;;;;6.6;5.3;;;;;;;6.63;97.97363;939.9868;;;;
2019/12/21 11:41:47;;;;;;;6.1;4.8;;;;;;;6.63;99.01172;939.9901;;;;
2019/12/21 11:44:12;;;;;;;4.6;3.8;;;;;;;6.73;96.52637;939.9723;;;;
2019/12/21 11:46:37;;;;;;;4;3.6;;;;;;;6.51;98.33691;940.0463;;;;
2019/12/21 11:49:02;;;;;;;3.7;3.3;;;;;;;6.69;97.23535;940.0419;;;;
2019/12/21 11:51:27;;;;;;;4.6;3.5;;;;;;;6.77;97.80078;939.975;;;;
2019/12/21 11:53:52;;;;;;;3.4;3;;;;;;;6.77;97.62988;939.9928;;;;
2019/12/21 11:56:17;;;;;;;4;3.1;;;;;;;6.72;98.72656;939.9521;;;;
2019/12/21 11:58:42;;;;;;;4;3;;;;;;;6.86;98.2207;939.9467;;;;
2019/12/21 12:01:07;;;;;;;3.4;2.7;;;;;;;6.95;96.64551;939.9548;;;;
2019/12/21 12:03:32;;;;;;;3.5;2.8;;;;;;;6.95;97.63672;939.9314;;;;
2019/12/21 12:05:57;;;;;;;5;3.4;;;;;;;6.83;97.35938;939.9362;;;;
2019/12/21 12:08:23;;;;;;;3.3;2.8;;;;;;;6.96;96.62305;939.9338;;;;
2019/12/21 12:10:48;;;;;;;3.5;2.8;;;;;;;7.02;96.93359;939.899;;;;
2019/12/21 12:13:13;;;;;;;4.2;3.1;;;;;;;6.86;96.55469;939.9216;;;;
2019/12/21 12:15:38;;;;;;;4.2;2.9;;;;;;;6.92;96.16797;939.8578;;;;
2019/12/21 12:18:03;;;;;;;4;3.1;;;;;;;6.74;97.98926;939.7774;;;;
2019/12/21 12:20:28;;;;;;;3;2.7;;;;;;;6.96;97.94629;939.8415;;;;
2019/12/21 12:22:54;;;;;;;4;3.1;;;;;;;6.98;96.95996;939.8092;;;;
2019/12/21 12:25:19;;;;;;;3.5;3.1;;;;;;;7.04;95.61328;939.8456;;;;
2019/12/21 12:27:44;;;;;;;3.9;3.2;;;;;;;7.16;94.81738;939.8384;;;;
2019/12/21 12:30:09;;;;;;;6.5;5.6;;;;;;;7.16;94.29395;939.8173;;;;
2019/12/21 12:32:34;;;;;;;8.2;7.4;;;;;;;7.18;95.76953;939.7823;;;;
2019/12/21 12:34:59;;;;;;;5.5;4.1;;;;;;;6.98;97.47363;939.7371;;;;
2019/12/21 12:37:24;;;;;;;5.5;4.9;;;;;;;7.06;96.43945;939.6887;;;;
2019/12/21 12:39:50;;;;;;;5.1;4.5;;;;;;;7.25;97.80859;939.6724;;;;
2019/12/21 12:42:15;;;;;;;5.8;4.1;;;;;;;7.26;97.79688;939.6536;;;;
2019/12/21 12:44:40;;;;;;;5.2;3.8;;;;;;;7.34;97.09766;939.6203;;;;
2019/12/21 12:47:06;;;;;;;5.4;3.4;;;;;;;7.49;96.04492;939.642;;;;
2019/12/21 12:49:31;;;;;;;4.4;3.2;;;;;;;7.43;97.01563;939.6057;;;;
2019/12/21 12:51:56;;;;;;;3.3;2.8;;;;;;;7.47;96.40625;939.56;;;;
2019/12/21 12:54:21;;;;;;;4.4;3;;;;;;;7.2;96.03809;939.588;;;;
2019/12/21 12:56:46;;;;;;;2.9;2.4;;;;;;;7.21;95.08008;939.5768;;;;
2019/12/21 12:59:11;;;;;;;2.8;2.1;;;;;;;7.34;95.99902;939.6365;;;;
2019/12/21 13:01:37;;;;;;;3;2.3;;;;;;;7.39;94.40234;939.6163;;;;
2019/12/21 13:04:02;;;;;;;3;2.3;;;;;;;7.23;93.82813;939.5394;;;;
2019/12/21 13:06:27;;;;;;;4;2.7;;;;;;;7.14;95.22656;939.5491;;;;
2019/12/21 13:08:52;;;;;;;3.3;2.3;;;;;;;7.16;95.0459;939.5056;;;;
2019/12/21 13:11:17;;;;;;;3.1;2.6;;;;;;;7.17;94.09082;939.49;;;;
2019/12/21 13:13:42;;;;;;;4.4;2.5;;;;;;;7.15;94.11914;939.4811;;;;
2019/12/21 13:16:07;;;;;;;2.5;1.9;;;;;;;7.31;93.95996;939.4526;;;;
2019/12/21 13:18:32;;;;;;;6.2;2.3;;;;;;;7.32;93.90723;939.4671;;;;
2019/12/21 13:20:57;;;;;;;3.7;2.5;;;;;;;7.29;93.85352;939.4736;;;;
2019/12/21 13:23:22;;;;;;;4.3;2.9;;;;;;;7.17;93.98828;939.4074;;;;
2019/12/21 13:25:47;;;;;;;3.6;2.6;;;;;;;7.29;94.75781;939.4048;;;;
2019/12/21 13:28:12;;;;;;;3.5;2.6;;;;;;;7.45;95.12305;939.3998;;;;
2019/12/21 13:30:38;;;;;;;3.2;2.5;;;;;;;7.41;94.03906;939.3601;;;;
2019/12/21 13:33:03;;;;;;;3.7;3;;;;;;;7.54;93.61133;939.3535;;;;
2019/12/21 13:35:29;;;;;;;4.6;3.1;;;;;;;7.65;93.30273;939.3692;;;;
2019/12/21 13:37:54;;;;;;;3.6;2.8;;;;;;;7.78;91.40918;939.4573;;;;
2019/12/21 13:40:20;;;;;;;5.7;3.6;;;;;;;7.72;92.59863;939.4624;;;;
2019/12/21 13:42:45;;;;;;;3.6;3.1;;;;;;;7.53;92.40918;939.5;;;;
2019/12/21 13:45:10;;;;;;;3.5;2.8;;;;;;;7.56;93.67383;939.4504;;;;
2019/12/21 13:47:35;;;;;;;3.4;2.5;;;;;;;7.59;94.08008;939.4001;;;;
2019/12/21 13:50:00;;;;;;;3.8;2.6;;;;;;;7.64;92.6377;939.3912;;;;
2019/12/21 13:52:25;;;;;;;4.2;2.6;;;;;;;7.76;91.71582;939.4272;;;;
2019/12/21 13:54:50;;;;;;;4.9;2.7;;;;;;;7.63;91.13867;939.4473;;;;
2019/12/21 13:57:15;;;;;;;3.4;2.2;;;;;;;7.78;91.15723;939.3982;;;;
2019/12/21 13:59:41;;;;;;;3.4;2.2;;;;;;;7.85;92.79883;939.4172;;;;
2019/12/21 14:02:06;;;;;;;3.5;2.3;;;;;;;7.81;92.22852;939.3875;;;;
2019/12/21 14:04:32;;;;;;;2.7;2.2;;;;;;;7.55;92.87012;939.4863;;;;
2019/12/21 14:06:57;;;;;;;3.3;2.1;;;;;;;7.66;92.30078;939.4796;;;;
2019/12/21 14:09:22;;;;;;;3.4;2.7;;;;;;;7.59;93.81738;939.5153;;;;
2019/12/21 14:11:47;;;;;;;3.7;2.2;;;;;;;7.62;93.14648;939.5388;;;;
2019/12/21 14:14:13;;;;;;;3.4;2.6;;;;;;;7.6;94.09375;939.5211;;;;
2019/12/21 14:16:38;;;;;;;3.5;2.8;;;;;;;7.55;93.30469;939.4984;;;;
2019/12/21 14:19:03;;;;;;;4.4;2.8;;;;;;;7.48;94.85449;939.4631;;;;
2019/12/21 14:21:29;;;;;;;5.1;3.5;;;;;;;7.37;95.44727;939.425;;;;
2019/12/21 14:23:54;;;;;;;5.1;3.6;;;;;;;7.31;95.35352;939.4196;;;;
2019/12/21 14:26:19;;;;;;;5.1;3.1;;;;;;;7.33;95.7002;939.4398;;;;
2019/12/21 14:28:44;;;;;;;3.3;3;;;;;;;7.41;95.98145;939.395;;;;
2019/12/21 14:31:09;;;;;;;3.4;3.1;;;;;;;7.37;95.11621;939.3983;;;;
2019/12/21 14:33:34;;;;;;;4.8;3.3;;;;;;;7.41;95.66113;939.3762;;;;
2019/12/21 14:35:59;;;;;;;3.9;3;;;;;;;7.39;95.79199;939.3851;;;;
2019/12/21 14:38:24;;;;;;;5;3.2;;;;;;;7.38;95.54102;939.3681;;;;
2019/12/21 14:40:50;;;;;;;4.3;3;;;;;;;7.49;94.53613;939.3008;;;;
2019/12/21 14:43:15;;;;;;;4;3.3;;;;;;;7.43;95.71289;939.2913;;;;
2019/12/21 14:45:40;;;;;;;5.6;3.7;;;;;;;7.32;96.72656;939.2687;;;;
2019/12/21 14:48:06;;;;;;;4.1;3.2;;;;;;;7.49;95.16504;939.1916;;;;
2019/12/21 14:50:31;;;;;;;4.4;3.5;;;;;;;7.43;94.19336;939.1997;;;;
2019/12/21 14:52:57;;;;;;;4.7;3.5;;;;;;;7.29;95.36133;939.195;;;;
2019/12/21 14:55:22;;;;;;;6;4;;;;;;;7.19;96.27539;939.1071;;;;
2019/12/21 14:57:48;;;;;;;5.1;3.7;;;;;;;7.23;96.71777;939.0478;;;;
2019/12/21 15:00:13;;;;;;;5.7;3.7;;;;;;;7.26;96.60938;939.0776;;;;
2019/12/21 15:02:38;;;;;;;4.6;3.6;;;;;;;7.07;97.32031;939.04;;;;
2019/12/21 15:05:03;;;;;;;4.2;3.8;;;;;;;7.07;97.56055;938.9542;;;;
2019/12/21 15:07:28;;;;;;;4.4;3.8;;;;;;;7.01;97.84473;938.9599;;;;
2019/12/21 15:09:54;;;;;;;4.9;4.3;;;;;;;7.03;97.41504;938.9316;;;;
2019/12/21 15:12:19;;;;;;;5.4;3.7;;;;;;;7.02;97.58398;938.8739;;;;
2019/12/21 15:14:44;;;;;;;4.7;3.5;;;;;;;7.06;97.31836;938.8358;;;;
2019/12/21 15:17:09;;;;;;;4.2;3.8;;;;;;;7;97.73828;938.8156;;;;
2019/12/21 15:19:34;;;;;;;4.6;4;;;;;;;6.83;98.05469;938.7706;;;;
2019/12/21 15:21:59;;;;;;;4.4;3.7;;;;;;;6.82;98.88574;938.7302;;;;
2019/12/21 15:24:25;;;;;;;5.4;3.5;;;;;;;6.82;98.02832;938.6539;;;;
2019/12/21 15:26:50;;;;;;;4.2;3.6;;;;;;;6.7;98.35547;938.6839;;;;
2019/12/21 15:29:15;;;;;;;4.9;3.9;;;;;;;6.68;98.93262;938.6624;;;;
2019/12/21 15:31:40;;;;;;;4.7;3.6;;;;;;;6.56;99.54395;938.6713;;;;
2019/12/21 15:34:05;;;;;;;3.9;3.4;;;;;;;6.6;98.8916;938.6225;;;;
2019/12/21 15:36:31;;;;;;;4.9;3.2;;;;;;;6.73;98.00977;938.6308;;;;
2019/12/21 15:38:56;;;;;;;4.8;3.1;;;;;;;6.56;99.32715;938.6267;;;;
2019/12/21 15:41:21;;;;;;;4.5;3.6;;;;;;;6.37;100;938.5828;;;;
2019/12/21 15:43:46;;;;;;;4.3;3.7;;;;;;;6.5;99.49512;938.5158;;;;
2019/12/21 15:46:12;;;;;;;4.6;3.8;;;;;;;6.53;99.86426;938.4739;;;;
2019/12/21 15:48:37;;;;;;;5.4;3.5;;;;;;;6.49;99.23145;938.4283;;;;
2019/12/21 15:51:02;;;;;;;4.3;3.6;;;;;;;6.42;99.39746;938.4025;;;;
2019/12/21 15:53:27;;;;;;;4.7;3.8;;;;;;;6.32;100;938.3872;;;;
2019/12/21 15:55:53;;;;;;;4.6;3.4;;;;;;;6.35;99.01758;938.3937;;;;
2019/12/21 15:58:18;;;;;;;5.4;3.6;;;;;;;6.24;99.6377;938.4348;;;;
2019/12/21 16:00:43;;;;;;;5.2;3.4;;;;;;;6.22;100;938.387;;;;
2019/12/21 16:03:08;;;;;;;4.9;3.4;;;;;;;6.27;99.86328;938.3596;;;;
2019/12/21 16:05:33;;;;;;;4.4;3.8;;;;;;;6.31;99.79395;938.3345;;;;
2019/12/21 16:07:58;;;;;;;3.9;3.5;;;;;;;6.26;99.65625;938.3427;;;;
2019/12/21 16:10:24;;;;;;;4.9;3.8;;;;;;;6.24;99.35547;938.2609;;;;
2019/12/21 16:12:49;;;;;;;4.9;3.9;;;;;;;6.1;100;938.2608;;;;
2019/12/21 16:15:14;;;;;;;7;5.1;;;;;;;6.09;99.68457;938.3036;;;;
2019/12/21 16:17:39;;;;;;;7.6;4.9;;;;;;;6.04;99.42188;938.2405;;;;
2019/12/21 16:20:04;;;;;;;4.9;4.3;;;;;;;6.05;100;938.1995;;;;
2019/12/21 16:22:29;;;;;;;5.7;4.7;;;;;;;5.96;100;938.2042;;;;